sensor_id;sensor_type;location;lat;lon;timestamp;temperature;humidity
57088;DHT22;42965;52.846;6.614;2024-01-30T00:00:50;5.70;99.90
57088;DHT22;42965;52.846;6.614;2024-01-30T00:03:18;5.60;99.90
57088;DHT22;42965;52.846;6.614;2024-01-30T00:05:44;5.60;99.90
57088;DHT22;42965;52.846;6.614;2024-01-30T00:08:10;5.60;99.90
57088;DHT22;42965;52.846;6.614;2024-01-30T00:10:36;5.50;99.90
57088;DHT22;42965;52.846;6.614;2024-01-30T00:13:03;5.50;99.90
57088;DHT22;42965;52.846;6.614;2024-01-30T00:15:29;5.50;99.90
57088;DHT22;42965;52.846;6.614;2024-01-30T00:17:55;5.40;99.90
57088;DHT22;42965;52.846;6.614;2024-01-30T00:20:42;5.40;99.90
57088;DHT22;42965;52.846;6.614;2024-01-30T00:23:09;5.40;99.90
57088;DHT22;42965;52.846;6.614;2024-01-30T00:25:35;5.40;99.90
57088;DHT22;42965;52.846;6.614;2024-01-30T00:28:01;5.40;99.90
57088;DHT22;42965;52.846;6.614;2024-01-30T00:30:27;5.30;99.90
57088;DHT22;42965;52.846;6.614;2024-01-30T00:32:54;5.30;99.90
57088;DHT22;42965;52.846;6.614;2024-01-30T00:35:20;5.30;99.90
57088;DHT22;42965;52.846;6.614;2024-01-30T00:37:48;5.30;99.90
57088;DHT22;42965;52.846;6.614;2024-01-30T00:40:14;5.20;99.90
57088;DHT22;42965;52.846;6.614;2024-01-30T00:42:42;5.20;99.90
57088;DHT22;42965;52.846;6.614;2024-01-30T00:45:13;5.10;99.90
57088;DHT22;42965;52.846;6.614;2024-01-30T00:47:40;5.10;99.90
57088;DHT22;42965;52.846;6.614;2024-01-30T00:50:06;5.10;99.90
57088;DHT22;42965;52.846;6.614;2024-01-30T00:52:33;5.10;99.90
57088;DHT22;42965;52.846;6.614;2024-01-30T00:55:00;5.20;99.90
57088;DHT22;42965;52.846;6.614;2024-01-30T00:57:27;5.20;99.90
57088;DHT22;42965;52.846;6.614;2024-01-30T00:59:54;5.20;99.90
57088;DHT22;42965;52.846;6.614;2024-01-30T01:02:21;5.20;99.90
57088;DHT22;42965;52.846;6.614;2024-01-30T01:04:50;5.30;99.90
57088;DHT22;42965;52.846;6.614;2024-01-30T01:07:17;5.30;99.90
57088;DHT22;42965;52.846;6.614;2024-01-30T01:09:44;5.30;99.90
57088;DHT22;42965;52.846;6.614;2024-01-30T01:12:11;5.30;99.90
57088;DHT22;42965;52.846;6.614;2024-01-30T01:14:38;5.30;99.90
57088;DHT22;42965;52.846;6.614;2024-01-30T01:17:05;5.30;99.90
57088;DHT22;42965;52.846;6.614;2024-01-30T01:19:32;5.30;99.90
57088;DHT22;42965;52.846;6.614;2024-01-30T01:21:58;5.30;99.90
57088;DHT22;42965;52.846;6.614;2024-01-30T01:24:24;5.30;99.90
57088;DHT22;42965;52.846;6.614;2024-01-30T01:26:50;5.20;99.90
57088;DHT22;42965;52.846;6.614;2024-01-30T01:29:17;5.20;99.90
57088;DHT22;42965;52.846;6.614;2024-01-30T01:31:43;5.20;99.90
57088;DHT22;42965;52.846;6.614;2024-01-30T01:34:10;5.20;99.90
57088;DHT22;42965;52.846;6.614;2024-01-30T01:36:37;5.20;99.90
57088;DHT22;42965;52.846;6.614;2024-01-30T01:39:03;5.30;99.90
57088;DHT22;42965;52.846;6.614;2024-01-30T01:41:31;5.30;99.90
57088;DHT22;42965;52.846;6.614;2024-01-30T01:44:01;5.40;99.90
57088;DHT22;42965;52.846;6.614;2024-01-30T01:46:28;5.40;99.90
57088;DHT22;42965;52.846;6.614;2024-01-30T01:48:56;5.50;99.90
57088;DHT22;42965;52.846;6.614;2024-01-30T01:51:24;5.50;99.90
57088;DHT22;42965;52.846;6.614;2024-01-30T01:53:56;5.60;99.90
57088;DHT22;42965;52.846;6.614;2024-01-30T01:56:23;5.60;99.90
57088;DHT22;42965;52.846;6.614;2024-01-30T01:58:51;5.60;99.90
57088;DHT22;42965;52.846;6.614;2024-01-30T02:01:20;5.70;99.90
57088;DHT22;42965;52.846;6.614;2024-01-30T02:03:47;5.70;99.90
57088;DHT22;42965;52.846;6.614;2024-01-30T02:06:14;5.80;99.90
57088;DHT22;42965;52.846;6.614;2024-01-30T02:08:41;5.80;99.90
57088;DHT22;42965;52.846;6.614;2024-01-30T02:11:08;5.80;99.90
57088;DHT22;42965;52.846;6.614;2024-01-30T02:13:36;5.80;99.90
57088;DHT22;42965;52.846;6.614;2024-01-30T02:16:03;5.80;99.90
57088;DHT22;42965;52.846;6.614;2024-01-30T02:18:29;5.80;99.90
57088;DHT22;42965;52.846;6.614;2024-01-30T02:21:16;5.80;99.90
57088;DHT22;42965;52.846;6.614;2024-01-30T02:23:46;5.80;99.90
57088;DHT22;42965;52.846;6.614;2024-01-30T02:26:14;5.90;99.90
57088;DHT22;42965;52.846;6.614;2024-01-30T02:28:41;5.90;99.90
57088;DHT22;42965;52.846;6.614;2024-01-30T02:31:08;5.90;99.90
57088;DHT22;42965;52.846;6.614;2024-01-30T02:33:35;5.90;99.90
57088;DHT22;42965;52.846;6.614;2024-01-30T02:36:01;6.00;99.90
57088;DHT22;42965;52.846;6.614;2024-01-30T02:38:27;6.00;99.90
57088;DHT22;42965;52.846;6.614;2024-01-30T02:40:55;6.00;99.90
57088;DHT22;42965;52.846;6.614;2024-01-30T02:43:22;6.00;99.90
57088;DHT22;42965;52.846;6.614;2024-01-30T02:45:49;6.00;99.90
57088;DHT22;42965;52.846;6.614;2024-01-30T02:48:15;6.00;99.90
57088;DHT22;42965;52.846;6.614;2024-01-30T02:50:41;6.00;99.90
57088;DHT22;42965;52.846;6.614;2024-01-30T02:53:08;6.00;99.90
57088;DHT22;42965;52.846;6.614;2024-01-30T02:55:34;6.10;99.90
57088;DHT22;42965;52.846;6.614;2024-01-30T02:58:04;6.10;99.90
57088;DHT22;42965;52.846;6.614;2024-01-30T03:00:30;6.10;99.90
57088;DHT22;42965;52.846;6.614;2024-01-30T03:02:56;6.10;99.90
57088;DHT22;42965;52.846;6.614;2024-01-30T03:05:23;6.10;99.90
57088;DHT22;42965;52.846;6.614;2024-01-30T03:07:52;6.10;99.90
57088;DHT22;42965;52.846;6.614;2024-01-30T03:10:18;6.20;99.90
57088;DHT22;42965;52.846;6.614;2024-01-30T03:12:44;6.20;99.90
57088;DHT22;42965;52.846;6.614;2024-01-30T03:15:11;6.20;99.90
57088;DHT22;42965;52.846;6.614;2024-01-30T03:17:37;6.20;99.90
57088;DHT22;42965;52.846;6.614;2024-01-30T03:20:04;6.10;99.90
57088;DHT22;42965;52.846;6.614;2024-01-30T03:22:32;6.10;99.90
57088;DHT22;42965;52.846;6.614;2024-01-30T03:24:58;6.10;99.90
57088;DHT22;42965;52.846;6.614;2024-01-30T03:27:24;6.10;99.90
57088;DHT22;42965;52.846;6.614;2024-01-30T03:29:50;6.10;99.90
57088;DHT22;42965;52.846;6.614;2024-01-30T03:32:18;6.10;99.90
57088;DHT22;42965;52.846;6.614;2024-01-30T03:34:44;6.10;99.90
57088;DHT22;42965;52.846;6.614;2024-01-30T03:37:11;6.10;99.90
57088;DHT22;42965;52.846;6.614;2024-01-30T03:39:38;6.10;99.90
57088;DHT22;42965;52.846;6.614;2024-01-30T03:42:05;6.10;99.90
57088;DHT22;42965;52.846;6.614;2024-01-30T03:44:31;6.10;99.90
57088;DHT22;42965;52.846;6.614;2024-01-30T03:46:57;6.10;99.90
57088;DHT22;42965;52.846;6.614;2024-01-30T03:49:23;6.10;99.90
57088;DHT22;42965;52.846;6.614;2024-01-30T03:51:50;6.10;99.90
57088;DHT22;42965;52.846;6.614;2024-01-30T03:54:16;6.10;99.90
57088;DHT22;42965;52.846;6.614;2024-01-30T03:56:42;6.20;99.90
57088;DHT22;42965;52.846;6.614;2024-01-30T03:59:08;6.20;99.90
57088;DHT22;42965;52.846;6.614;2024-01-30T04:01:35;6.20;99.90
57088;DHT22;42965;52.846;6.614;2024-01-30T04:04:01;6.20;99.90
57088;DHT22;42965;52.846;6.614;2024-01-30T04:06:28;6.20;99.90
57088;DHT22;42965;52.846;6.614;2024-01-30T04:08:54;6.30;99.90
57088;DHT22;42965;52.846;6.614;2024-01-30T04:11:20;6.30;99.90
57088;DHT22;42965;52.846;6.614;2024-01-30T04:13:47;6.20;99.90
57088;DHT22;42965;52.846;6.614;2024-01-30T04:16:21;6.30;99.90
57088;DHT22;42965;52.846;6.614;2024-01-30T04:18:51;6.30;99.90
57088;DHT22;42965;52.846;6.614;2024-01-30T04:21:18;6.40;99.90
57088;DHT22;42965;52.846;6.614;2024-01-30T04:23:46;6.40;99.90
57088;DHT22;42965;52.846;6.614;2024-01-30T04:26:13;6.40;99.90
57088;DHT22;42965;52.846;6.614;2024-01-30T04:28:41;6.40;99.90
57088;DHT22;42965;52.846;6.614;2024-01-30T04:31:08;6.40;99.90
57088;DHT22;42965;52.846;6.614;2024-01-30T04:33:34;6.40;99.90
57088;DHT22;42965;52.846;6.614;2024-01-30T04:36:00;6.40;99.90
57088;DHT22;42965;52.846;6.614;2024-01-30T04:38:26;6.50;99.90
57088;DHT22;42965;52.846;6.614;2024-01-30T04:40:53;6.50;99.90
57088;DHT22;42965;52.846;6.614;2024-01-30T04:43:20;6.50;99.90
57088;DHT22;42965;52.846;6.614;2024-01-30T04:45:49;6.50;99.90
57088;DHT22;42965;52.846;6.614;2024-01-30T04:48:16;6.50;99.90
57088;DHT22;42965;52.846;6.614;2024-01-30T04:50:46;6.50;99.90
57088;DHT22;42965;52.846;6.614;2024-01-30T04:53:13;6.60;99.90
57088;DHT22;42965;52.846;6.614;2024-01-30T04:55:40;6.60;99.90
57088;DHT22;42965;52.846;6.614;2024-01-30T04:58:07;6.60;99.90
57088;DHT22;42965;52.846;6.614;2024-01-30T05:00:34;6.50;99.90
57088;DHT22;42965;52.846;6.614;2024-01-30T05:03:02;6.50;99.90
57088;DHT22;42965;52.846;6.614;2024-01-30T05:05:29;6.50;99.90
57088;DHT22;42965;52.846;6.614;2024-01-30T05:07:56;6.50;99.90
57088;DHT22;42965;52.846;6.614;2024-01-30T05:10:23;6.50;99.90
57088;DHT22;42965;52.846;6.614;2024-01-30T05:12:49;6.60;99.90
57088;DHT22;42965;52.846;6.614;2024-01-30T05:15:16;6.70;99.90
57088;DHT22;42965;52.846;6.614;2024-01-30T05:17:44;6.70;99.90
57088;DHT22;42965;52.846;6.614;2024-01-30T05:20:11;6.70;99.90
57088;DHT22;42965;52.846;6.614;2024-01-30T05:22:38;6.70;99.90
57088;DHT22;42965;52.846;6.614;2024-01-30T05:25:12;6.70;99.90
57088;DHT22;42965;52.846;6.614;2024-01-30T05:27:39;6.70;99.90
57088;DHT22;42965;52.846;6.614;2024-01-30T05:30:07;6.80;99.90
57088;DHT22;42965;52.846;6.614;2024-01-30T05:32:34;6.80;99.90
57088;DHT22;42965;52.846;6.614;2024-01-30T05:35:01;6.80;99.90
57088;DHT22;42965;52.846;6.614;2024-01-30T05:37:29;6.90;99.90
57088;DHT22;42965;52.846;6.614;2024-01-30T05:39:56;6.90;99.90
57088;DHT22;42965;52.846;6.614;2024-01-30T05:42:23;6.90;99.90
57088;DHT22;42965;52.846;6.614;2024-01-30T05:44:50;6.90;99.90
57088;DHT22;42965;52.846;6.614;2024-01-30T05:47:17;6.90;99.90
57088;DHT22;42965;52.846;6.614;2024-01-30T05:49:44;6.90;99.90
57088;DHT22;42965;52.846;6.614;2024-01-30T05:52:11;6.90;99.90
57088;DHT22;42965;52.846;6.614;2024-01-30T05:54:38;6.90;99.90
57088;DHT22;42965;52.846;6.614;2024-01-30T05:57:04;6.90;99.90
57088;DHT22;42965;52.846;6.614;2024-01-30T05:59:32;6.90;99.90
57088;DHT22;42965;52.846;6.614;2024-01-30T06:01:58;6.90;99.90
57088;DHT22;42965;52.846;6.614;2024-01-30T06:04:24;6.90;99.90
57088;DHT22;42965;52.846;6.614;2024-01-30T06:06:50;6.90;99.90
57088;DHT22;42965;52.846;6.614;2024-01-30T06:09:16;6.80;99.90
57088;DHT22;42965;52.846;6.614;2024-01-30T06:11:43;6.80;99.90
57088;DHT22;42965;52.846;6.614;2024-01-30T06:14:09;6.70;99.90
57088;DHT22;42965;52.846;6.614;2024-01-30T06:16:35;6.70;99.90
57088;DHT22;42965;52.846;6.614;2024-01-30T06:19:01;6.70;99.90
57088;DHT22;42965;52.846;6.614;2024-01-30T06:21:28;6.70;99.90
57088;DHT22;42965;52.846;6.614;2024-01-30T06:23:54;6.60;99.90
57088;DHT22;42965;52.846;6.614;2024-01-30T06:26:20;6.60;99.90
57088;DHT22;42965;52.846;6.614;2024-01-30T06:28:46;6.70;99.90
57088;DHT22;42965;52.846;6.614;2024-01-30T06:31:13;6.60;99.90
57088;DHT22;42965;52.846;6.614;2024-01-30T06:33:39;6.60;99.90
57088;DHT22;42965;52.846;6.614;2024-01-30T06:36:08;6.60;99.90
57088;DHT22;42965;52.846;6.614;2024-01-30T06:38:34;6.60;99.90
57088;DHT22;42965;52.846;6.614;2024-01-30T06:41:00;6.70;99.90
57088;DHT22;42965;52.846;6.614;2024-01-30T06:43:26;6.70;99.90
57088;DHT22;42965;52.846;6.614;2024-01-30T06:45:53;6.70;99.90
57088;DHT22;42965;52.846;6.614;2024-01-30T06:48:19;6.70;99.90
57088;DHT22;42965;52.846;6.614;2024-01-30T06:50:45;6.70;99.90
57088;DHT22;42965;52.846;6.614;2024-01-30T06:53:12;6.70;99.90
57088;DHT22;42965;52.846;6.614;2024-01-30T06:55:39;6.70;99.90
57088;DHT22;42965;52.846;6.614;2024-01-30T06:58:06;6.70;99.90
57088;DHT22;42965;52.846;6.614;2024-01-30T07:00:33;6.70;99.90
57088;DHT22;42965;52.846;6.614;2024-01-30T07:03:00;6.80;99.90
57088;DHT22;42965;52.846;6.614;2024-01-30T07:05:27;6.80;99.90
57088;DHT22;42965;52.846;6.614;2024-01-30T07:07:54;6.80;99.90
57088;DHT22;42965;52.846;6.614;2024-01-30T07:10:21;6.90;99.90
57088;DHT22;42965;52.846;6.614;2024-01-30T07:12:48;6.90;99.90
57088;DHT22;42965;52.846;6.614;2024-01-30T07:15:15;6.90;99.90
57088;DHT22;42965;52.846;6.614;2024-01-30T07:17:46;6.90;99.90
57088;DHT22;42965;52.846;6.614;2024-01-30T07:20:13;6.90;99.90
57088;DHT22;42965;52.846;6.614;2024-01-30T07:22:40;6.90;99.90
57088;DHT22;42965;52.846;6.614;2024-01-30T07:25:08;6.90;99.90
57088;DHT22;42965;52.846;6.614;2024-01-30T07:27:35;6.90;99.90
57088;DHT22;42965;52.846;6.614;2024-01-30T07:30:03;7.00;99.90
57088;DHT22;42965;52.846;6.614;2024-01-30T07:32:30;7.00;99.90
57088;DHT22;42965;52.846;6.614;2024-01-30T07:34:58;7.00;99.90
57088;DHT22;42965;52.846;6.614;2024-01-30T07:37:25;6.90;99.90
57088;DHT22;42965;52.846;6.614;2024-01-30T07:39:51;7.00;99.90
57088;DHT22;42965;52.846;6.614;2024-01-30T07:42:18;7.00;99.90
57088;DHT22;42965;52.846;6.614;2024-01-30T07:44:44;7.00;99.90
57088;DHT22;42965;52.846;6.614;2024-01-30T07:47:10;7.00;99.90
57088;DHT22;42965;52.846;6.614;2024-01-30T07:49:39;7.00;99.90
57088;DHT22;42965;52.846;6.614;2024-01-30T07:52:05;7.00;99.90
57088;DHT22;42965;52.846;6.614;2024-01-30T07:54:32;7.00;99.90
57088;DHT22;42965;52.846;6.614;2024-01-30T07:57:13;7.10;99.90
57088;DHT22;42965;52.846;6.614;2024-01-30T07:59:42;7.10;99.90
57088;DHT22;42965;52.846;6.614;2024-01-30T08:02:10;7.10;99.90
57088;DHT22;42965;52.846;6.614;2024-01-30T08:04:36;7.20;99.90
57088;DHT22;42965;52.846;6.614;2024-01-30T08:07:02;7.20;99.90
57088;DHT22;42965;52.846;6.614;2024-01-30T08:09:29;7.30;99.90
57088;DHT22;42965;52.846;6.614;2024-01-30T08:11:55;7.30;99.90
57088;DHT22;42965;52.846;6.614;2024-01-30T08:14:21;7.40;99.90
57088;DHT22;42965;52.846;6.614;2024-01-30T08:16:48;7.50;99.90
57088;DHT22;42965;52.846;6.614;2024-01-30T08:19:17;7.60;99.90
57088;DHT22;42965;52.846;6.614;2024-01-30T08:21:43;7.60;99.90
57088;DHT22;42965;52.846;6.614;2024-01-30T08:24:09;7.70;99.90
57088;DHT22;42965;52.846;6.614;2024-01-30T08:26:36;7.70;99.90
57088;DHT22;42965;52.846;6.614;2024-01-30T08:29:03;7.80;99.90
57088;DHT22;42965;52.846;6.614;2024-01-30T08:31:29;7.90;99.90
57088;DHT22;42965;52.846;6.614;2024-01-30T08:33:55;7.90;99.90
57088;DHT22;42965;52.846;6.614;2024-01-30T08:36:21;8.00;99.90
57088;DHT22;42965;52.846;6.614;2024-01-30T08:38:48;8.00;99.90
57088;DHT22;42965;52.846;6.614;2024-01-30T08:41:15;8.00;99.90
57088;DHT22;42965;52.846;6.614;2024-01-30T08:43:43;8.10;99.90
57088;DHT22;42965;52.846;6.614;2024-01-30T08:46:11;8.10;99.90
57088;DHT22;42965;52.846;6.614;2024-01-30T08:48:38;8.20;99.90
57088;DHT22;42965;52.846;6.614;2024-01-30T08:51:05;8.20;99.90
57088;DHT22;42965;52.846;6.614;2024-01-30T08:53:35;8.30;99.90
57088;DHT22;42965;52.846;6.614;2024-01-30T08:56:03;8.40;99.90
57088;DHT22;42965;52.846;6.614;2024-01-30T08:58:30;8.40;99.90
57088;DHT22;42965;52.846;6.614;2024-01-30T09:00:58;8.50;99.90
57088;DHT22;42965;52.846;6.614;2024-01-30T09:03:25;8.50;99.90
57088;DHT22;42965;52.846;6.614;2024-01-30T09:05:52;8.60;99.90
57088;DHT22;42965;52.846;6.614;2024-01-30T09:08:19;8.50;99.90
57088;DHT22;42965;52.846;6.614;2024-01-30T09:10:46;8.60;99.90
57088;DHT22;42965;52.846;6.614;2024-01-30T09:13:13;8.60;99.90
57088;DHT22;42965;52.846;6.614;2024-01-30T09:15:41;8.60;99.90
57088;DHT22;42965;52.846;6.614;2024-01-30T09:18:09;8.70;99.90
57088;DHT22;42965;52.846;6.614;2024-01-30T09:20:36;8.80;99.90
57088;DHT22;42965;52.846;6.614;2024-01-30T09:23:03;8.80;99.90
57088;DHT22;42965;52.846;6.614;2024-01-30T09:25:30;8.90;99.90
57088;DHT22;42965;52.846;6.614;2024-01-30T09:27:57;8.90;99.90
57088;DHT22;42965;52.846;6.614;2024-01-30T09:30:25;9.00;99.90
57088;DHT22;42965;52.846;6.614;2024-01-30T09:32:52;9.00;99.90
57088;DHT22;42965;52.846;6.614;2024-01-30T09:35:19;8.90;99.90
57088;DHT22;42965;52.846;6.614;2024-01-30T09:37:46;8.90;99.90
57088;DHT22;42965;52.846;6.614;2024-01-30T09:40:13;9.00;99.90
57088;DHT22;42965;52.846;6.614;2024-01-30T09:42:42;9.00;99.90
57088;DHT22;42965;52.846;6.614;2024-01-30T09:45:14;9.00;99.90
57088;DHT22;42965;52.846;6.614;2024-01-30T09:47:42;9.00;99.90
57088;DHT22;42965;52.846;6.614;2024-01-30T09:50:13;9.10;99.90
57088;DHT22;42965;52.846;6.614;2024-01-30T09:52:41;9.20;99.90
57088;DHT22;42965;52.846;6.614;2024-01-30T09:55:08;9.20;99.90
57088;DHT22;42965;52.846;6.614;2024-01-30T09:57:35;9.30;99.90
57088;DHT22;42965;52.846;6.614;2024-01-30T10:00:06;9.40;99.90
57088;DHT22;42965;52.846;6.614;2024-01-30T10:02:40;9.50;99.90
57088;DHT22;42965;52.846;6.614;2024-01-30T10:05:08;9.50;99.90
57088;DHT22;42965;52.846;6.614;2024-01-30T10:07:36;9.50;99.90
57088;DHT22;42965;52.846;6.614;2024-01-30T10:10:05;9.50;99.90
57088;DHT22;42965;52.846;6.614;2024-01-30T10:12:34;9.60;99.90
57088;DHT22;42965;52.846;6.614;2024-01-30T10:15:01;9.60;99.90
57088;DHT22;42965;52.846;6.614;2024-01-30T10:17:29;9.60;99.90
57088;DHT22;42965;52.846;6.614;2024-01-30T10:19:56;9.70;99.90
57088;DHT22;42965;52.846;6.614;2024-01-30T10:22:23;9.70;99.90
57088;DHT22;42965;52.846;6.614;2024-01-30T10:24:49;9.80;99.90
57088;DHT22;42965;52.846;6.614;2024-01-30T10:27:15;9.80;99.90
57088;DHT22;42965;52.846;6.614;2024-01-30T10:29:41;9.90;99.90
57088;DHT22;42965;52.846;6.614;2024-01-30T10:32:08;9.90;99.90
57088;DHT22;42965;52.846;6.614;2024-01-30T10:34:35;9.90;99.90
57088;DHT22;42965;52.846;6.614;2024-01-30T10:37:08;10.00;99.90
57088;DHT22;42965;52.846;6.614;2024-01-30T10:39:39;10.00;99.90
57088;DHT22;42965;52.846;6.614;2024-01-30T10:42:07;10.00;99.90
57088;DHT22;42965;52.846;6.614;2024-01-30T10:44:43;10.10;99.90
57088;DHT22;42965;52.846;6.614;2024-01-30T10:47:12;10.20;99.90
57088;DHT22;42965;52.846;6.614;2024-01-30T10:49:41;10.20;99.90
57088;DHT22;42965;52.846;6.614;2024-01-30T10:52:09;10.20;99.90
57088;DHT22;42965;52.846;6.614;2024-01-30T10:54:37;10.20;99.90
57088;DHT22;42965;52.846;6.614;2024-01-30T10:57:04;10.20;99.90
57088;DHT22;42965;52.846;6.614;2024-01-30T10:59:32;10.20;99.90
57088;DHT22;42965;52.846;6.614;2024-01-30T11:01:59;10.20;99.90
57088;DHT22;42965;52.846;6.614;2024-01-30T11:04:26;10.20;99.90
57088;DHT22;42965;52.846;6.614;2024-01-30T11:06:54;10.30;99.90
57088;DHT22;42965;52.846;6.614;2024-01-30T11:09:20;10.30;99.90
57088;DHT22;42965;52.846;6.614;2024-01-30T11:11:51;10.30;99.90
57088;DHT22;42965;52.846;6.614;2024-01-30T11:14:23;10.30;99.90
57088;DHT22;42965;52.846;6.614;2024-01-30T11:16:50;10.30;99.90
57088;DHT22;42965;52.846;6.614;2024-01-30T11:19:23;10.30;99.90
57088;DHT22;42965;52.846;6.614;2024-01-30T11:21:52;10.30;99.90
57088;DHT22;42965;52.846;6.614;2024-01-30T11:24:20;10.40;99.90
57088;DHT22;42965;52.846;6.614;2024-01-30T11:26:56;10.40;99.90
57088;DHT22;42965;52.846;6.614;2024-01-30T11:29:35;10.40;99.90
57088;DHT22;42965;52.846;6.614;2024-01-30T11:32:01;10.30;99.90
57088;DHT22;42965;52.846;6.614;2024-01-30T11:34:28;10.30;99.90
57088;DHT22;42965;52.846;6.614;2024-01-30T11:37:09;10.30;99.90
57088;DHT22;42965;52.846;6.614;2024-01-30T11:39:36;10.40;99.90
57088;DHT22;42965;52.846;6.614;2024-01-30T11:42:06;10.50;99.90
57088;DHT22;42965;52.846;6.614;2024-01-30T11:44:34;10.60;99.90
57088;DHT22;42965;52.846;6.614;2024-01-30T11:47:00;10.60;99.90
57088;DHT22;42965;52.846;6.614;2024-01-30T11:49:29;10.60;99.90
57088;DHT22;42965;52.846;6.614;2024-01-30T11:51:55;10.70;99.90
57088;DHT22;42965;52.846;6.614;2024-01-30T11:54:22;10.80;99.90
57088;DHT22;42965;52.846;6.614;2024-01-30T11:56:48;10.90;99.90
57088;DHT22;42965;52.846;6.614;2024-01-30T11:59:14;11.10;99.90
57088;DHT22;42965;52.846;6.614;2024-01-30T12:01:41;11.20;99.90
57088;DHT22;42965;52.846;6.614;2024-01-30T12:04:08;11.30;99.90
57088;DHT22;42965;52.846;6.614;2024-01-30T12:06:35;11.40;99.90
57088;DHT22;42965;52.846;6.614;2024-01-30T12:09:03;11.50;99.90
57088;DHT22;42965;52.846;6.614;2024-01-30T12:11:45;11.70;99.90
57088;DHT22;42965;52.846;6.614;2024-01-30T12:14:13;11.80;99.90
57088;DHT22;42965;52.846;6.614;2024-01-30T12:16:39;11.90;99.90
57088;DHT22;42965;52.846;6.614;2024-01-30T12:19:07;12.20;99.90
57088;DHT22;42965;52.846;6.614;2024-01-30T12:21:34;12.30;99.90
57088;DHT22;42965;52.846;6.614;2024-01-30T12:24:00;12.00;99.90
57088;DHT22;42965;52.846;6.614;2024-01-30T12:26:27;11.90;99.90
57088;DHT22;42965;52.846;6.614;2024-01-30T12:28:56;11.70;99.90
57088;DHT22;42965;52.846;6.614;2024-01-30T12:31:28;11.50;99.90
57088;DHT22;42965;52.846;6.614;2024-01-30T12:33:55;11.20;99.90
57088;DHT22;42965;52.846;6.614;2024-01-30T12:36:23;11.10;99.90
57088;DHT22;42965;52.846;6.614;2024-01-30T12:38:50;11.00;99.90
57088;DHT22;42965;52.846;6.614;2024-01-30T12:41:19;11.10;99.90
57088;DHT22;42965;52.846;6.614;2024-01-30T12:43:46;11.10;99.90
57088;DHT22;42965;52.846;6.614;2024-01-30T12:46:17;11.10;99.90
57088;DHT22;42965;52.846;6.614;2024-01-30T12:48:45;11.00;99.90
57088;DHT22;42965;52.846;6.614;2024-01-30T12:51:11;10.80;99.90
57088;DHT22;42965;52.846;6.614;2024-01-30T12:53:37;10.70;99.90
57088;DHT22;42965;52.846;6.614;2024-01-30T12:56:04;10.60;99.90
57088;DHT22;42965;52.846;6.614;2024-01-30T12:58:30;10.50;99.90
57088;DHT22;42965;52.846;6.614;2024-01-30T13:00:56;10.50;99.90
57088;DHT22;42965;52.846;6.614;2024-01-30T13:03:22;10.80;99.90
57088;DHT22;42965;52.846;6.614;2024-01-30T13:05:49;10.90;99.90
57088;DHT22;42965;52.846;6.614;2024-01-30T13:08:15;10.90;99.90
57088;DHT22;42965;52.846;6.614;2024-01-30T13:10:41;10.70;99.90
57088;DHT22;42965;52.846;6.614;2024-01-30T13:13:07;10.60;99.90
57088;DHT22;42965;52.846;6.614;2024-01-30T13:15:35;10.60;99.90
57088;DHT22;42965;52.846;6.614;2024-01-30T13:18:02;10.80;99.90
57088;DHT22;42965;52.846;6.614;2024-01-30T13:20:28;10.80;99.90
57088;DHT22;42965;52.846;6.614;2024-01-30T13:22:54;10.90;99.90
57088;DHT22;42965;52.846;6.614;2024-01-30T13:25:20;10.80;99.90
57088;DHT22;42965;52.846;6.614;2024-01-30T13:27:47;10.70;99.90
57088;DHT22;42965;52.846;6.614;2024-01-30T13:30:13;10.60;99.90
57088;DHT22;42965;52.846;6.614;2024-01-30T13:32:40;10.40;99.90
57088;DHT22;42965;52.846;6.614;2024-01-30T13:35:07;10.30;99.90
57088;DHT22;42965;52.846;6.614;2024-01-30T13:37:34;10.10;99.90
57088;DHT22;42965;52.846;6.614;2024-01-30T13:40:00;10.10;99.90
57088;DHT22;42965;52.846;6.614;2024-01-30T13:42:26;10.10;99.90
57088;DHT22;42965;52.846;6.614;2024-01-30T13:44:53;10.00;99.90
57088;DHT22;42965;52.846;6.614;2024-01-30T13:47:19;9.90;99.90
57088;DHT22;42965;52.846;6.614;2024-01-30T13:49:49;9.80;99.90
57088;DHT22;42965;52.846;6.614;2024-01-30T13:52:16;9.80;99.90
57088;DHT22;42965;52.846;6.614;2024-01-30T13:54:44;9.90;99.90
57088;DHT22;42965;52.846;6.614;2024-01-30T13:57:14;10.10;99.90
57088;DHT22;42965;52.846;6.614;2024-01-30T13:59:41;10.20;99.90
57088;DHT22;42965;52.846;6.614;2024-01-30T14:02:08;10.20;99.90
57088;DHT22;42965;52.846;6.614;2024-01-30T14:04:37;10.20;99.90
57088;DHT22;42965;52.846;6.614;2024-01-30T14:07:04;10.10;99.90
57088;DHT22;42965;52.846;6.614;2024-01-30T14:09:32;10.10;99.90
57088;DHT22;42965;52.846;6.614;2024-01-30T14:12:01;10.10;99.90
57088;DHT22;42965;52.846;6.614;2024-01-30T14:14:28;10.10;99.90
57088;DHT22;42965;52.846;6.614;2024-01-30T14:16:55;10.00;99.90
57088;DHT22;42965;52.846;6.614;2024-01-30T14:19:22;9.90;99.90
57088;DHT22;42965;52.846;6.614;2024-01-30T14:21:49;9.90;99.90
57088;DHT22;42965;52.846;6.614;2024-01-30T14:24:16;9.90;99.90
57088;DHT22;42965;52.846;6.614;2024-01-30T14:26:43;9.90;99.90
57088;DHT22;42965;52.846;6.614;2024-01-30T14:29:10;9.80;99.90
57088;DHT22;42965;52.846;6.614;2024-01-30T14:31:38;9.80;99.90
57088;DHT22;42965;52.846;6.614;2024-01-30T14:34:04;9.70;99.90
57088;DHT22;42965;52.846;6.614;2024-01-30T14:36:31;9.60;99.90
57088;DHT22;42965;52.846;6.614;2024-01-30T14:38:59;9.60;99.90
57088;DHT22;42965;52.846;6.614;2024-01-30T14:41:26;9.60;99.90
57088;DHT22;42965;52.846;6.614;2024-01-30T14:43:52;9.50;99.90
57088;DHT22;42965;52.846;6.614;2024-01-30T14:46:18;9.50;99.90
57088;DHT22;42965;52.846;6.614;2024-01-30T14:48:44;9.50;99.90
57088;DHT22;42965;52.846;6.614;2024-01-30T14:51:10;9.50;99.90
57088;DHT22;42965;52.846;6.614;2024-01-30T14:53:37;9.40;99.90
57088;DHT22;42965;52.846;6.614;2024-01-30T14:56:03;9.40;99.90
57088;DHT22;42965;52.846;6.614;2024-01-30T14:58:30;9.40;99.90
57088;DHT22;42965;52.846;6.614;2024-01-30T15:00:56;9.40;99.90
57088;DHT22;42965;52.846;6.614;2024-01-30T15:03:23;9.40;99.90
57088;DHT22;42965;52.846;6.614;2024-01-30T15:05:49;9.40;99.90
57088;DHT22;42965;52.846;6.614;2024-01-30T15:08:15;9.30;99.90
57088;DHT22;42965;52.846;6.614;2024-01-30T15:10:42;9.30;99.90
57088;DHT22;42965;52.846;6.614;2024-01-30T15:13:08;9.20;99.90
57088;DHT22;42965;52.846;6.614;2024-01-30T15:15:34;9.20;99.90
57088;DHT22;42965;52.846;6.614;2024-01-30T15:18:01;9.20;99.90
57088;DHT22;42965;52.846;6.614;2024-01-30T15:20:27;9.10;99.90
57088;DHT22;42965;52.846;6.614;2024-01-30T15:22:53;9.00;99.90
57088;DHT22;42965;52.846;6.614;2024-01-30T15:25:19;8.90;99.90
57088;DHT22;42965;52.846;6.614;2024-01-30T15:27:45;8.80;99.90
57088;DHT22;42965;52.846;6.614;2024-01-30T15:30:12;8.70;99.90
57088;DHT22;42965;52.846;6.614;2024-01-30T15:32:38;8.70;99.90
57088;DHT22;42965;52.846;6.614;2024-01-30T15:35:05;8.70;99.90
57088;DHT22;42965;52.846;6.614;2024-01-30T15:37:32;8.70;99.90
57088;DHT22;42965;52.846;6.614;2024-01-30T15:39:58;8.70;99.90
57088;DHT22;42965;52.846;6.614;2024-01-30T15:42:25;8.70;99.90